Flight Track Log - Related Links

Times and Time Zones

All times are in EDT time to prevent confusion due to time zone crossing. See the DAL1032 flight status page for this flight to view local times or setup timezone preferences in your user account.

Time Position Orientation Groundspeed Altitude Reporting Facility
EDT Latitude Longitude Course Direction KTS MPH feet Rate Location/Type
Fri 06:42:05 PM 19.4469 -99.0508 59° Northeast 204 235 7,500  Level FlightAware ADS-B (DTMB / MIR)
Fri 06:42:21 PM 19.4542 -99.0379 58° Northeast 205 236 8,100 2,400 Climbing FlightAware ADS-B
Fri 06:42:25 PM 19.4566 -99.0338 59° Northeast 209 241 8,300 1,600 Climbing FlightAware ADS-B (DTMB / MIR)
Fri 06:42:36 PM 19.4618 -99.0249 57° Northeast 214 246 8,500 1,143 Climbing FlightAware ADS-B
Fri 06:42:46 PM 19.4675 -99.0151 59° Northeast 222 255 8,700 1,200 Climbing FlightAware ADS-B (DTMB / MIR)
Fri 06:42:51 PM 19.4704 -99.0100 59° Northeast 226 260 8,800 947 Climbing FlightAware ADS-B
Fri 06:43:05 PM 19.4779 -98.9972 58° Northeast 241 277 9,000 1,200 Climbing FlightAware ADS-B (DTMB / MIR)
Fri 06:43:06 PM 19.4791 -98.9951 58° Northeast 241 277 9,100 2,250 Climbing FlightAware ADS-B
Fri 06:43:21 PM 19.4879 -98.9805 57° Northeast 243 280 9,600 2,211 Climbing FlightAware ADS-B
Fri 06:43:25 PM 19.4903 -98.9766 58° Northeast 242 278 9,800 1,600 Climbing FlightAware ADS-B (DTMB / MIR)
Fri 06:43:51 PM 19.5053 -98.9506 59° Northeast 250 288 10,400 1,317 Climbing FlightAware ADS-B
Fri 06:44:06 PM 19.5143 -98.9343 59° Northeast 264 304 10,700 1,200 Climbing FlightAware ADS-B (DTMB / MIR)
Fri 06:44:21 PM 19.5242 -98.9164 60° Northeast 278 320 11,000 1,105 Climbing FlightAware ADS-B
Fri 06:44:44 PM 19.5400 -98.8883 59° Northeast 301 346 11,400 1,200 Climbing FlightAware ADS-B (DTMB / MIR)
Fri 06:44:51 PM 19.5448 -98.8799 58° Northeast 302 348 11,600 2,057 Climbing FlightAware ADS-B
Fri 06:45:19 PM 19.5637 -98.8462 59° Northeast 305 351 12,600 2,294 Climbing FlightAware ADS-B
Fri 06:45:25 PM 19.5701 -98.8347 60° Northeast 306 352 12,900 1,929 Climbing FlightAware ADS-B (DTMB / MIR)
Fri 06:45:47 PM 19.5827 -98.8122 59° Northeast 309 356 13,500 2,195 Climbing FlightAware ADS-B
Fri 06:46:06 PM 19.5997 -98.7821 60° Northeast 313 360 14,400 2,455 Climbing FlightAware ADS-B (DTMB / MIR)
Fri 06:46:31 PM 19.6184 -98.7485 59° Northeast 319 367 15,300 2,100 Climbing FlightAware ADS-B
Fri 06:46:46 PM 19.6256 -98.7358 59° Northeast 326 375 15,800 1,826 Climbing FlightAware ADS-B (DTMB / MIR)
Fri 06:46:54 PM 19.6348 -98.7194 59° Northeast 328 377 16,000 2,229 Climbing FlightAware ADS-B
Fri 06:47:21 PM 19.6505 -98.6924 43° Northeast 333 383 17,100 2,438 Climbing FlightAware ADS-B
Fri 06:47:26 PM 19.6652 -98.6789 31° Northeast 333 383 17,300 2,000 Climbing FlightAware ADS-B (DTMB / MIR)
Fri 06:47:30 PM 19.6720 -98.6752 26° Northeast 332 382 17,400 1,543 Climbing FlightAware ADS-B
Fri 06:48:01 PM 19.7159 -98.6564 22° Northeast 350 403 18,200 1,500 Climbing FlightAware ADS-B
Fri 06:48:06 PM 19.7244 -98.6526 23° Northeast 356 410 18,300 800 Climbing FlightAware ADS-B (DTMB / MIR)
Fri 06:48:31 PM 19.7629 -98.6356 22° Northeast 367 422 18,600 750 Climbing FlightAware ADS-B
Fri 06:48:46 PM 19.7879 -98.6245 23° Northeast 392 451 18,800 1,091 Climbing FlightAware ADS-B (DTMB / MIR)
Fri 06:49:26 PM 19.8556 -98.5947 23° Northeast 414 476 19,600 1,185 Climbing FlightAware ADS-B (DTMB / MIR)
Fri 06:50:07 PM 19.9343 -98.5603 23° Northeast 434 499 20,400 1,500 Climbing FlightAware ADS-B (DTMB / MIR)
Fri 06:50:46 PM 20.0042 -98.5299 22° Northeast 444 511 21,600 1,615 Climbing FlightAware ADS-B (DTMB / MIR)
Fri 06:51:25 PM 20.0842 -98.4949 23° Northeast 452 520 22,500 1,425 Climbing FlightAware ADS-B (DTMB / MIR)
Fri 06:52:06 PM 20.1651 -98.4595 23° Northeast 461 531 23,500 1,610 Climbing FlightAware ADS-B (DTMB / MIR)
Fri 06:52:47 PM 20.2447 -98.4244 23° Northeast 465 535 24,700 1,737 Climbing FlightAware ADS-B (DTMB / MIR)
Fri 06:53:22 PM 20.3113 -98.3951 23° Northeast 466 536 25,700 1,500 Climbing FlightAware ADS-B (DTMB / MIR)
Fri 06:54:07 PM 20.3991 -98.3571 19° North 468 539 26,700 1,200 Climbing FlightAware ADS-B (DTMB / MIR)
Fri 06:54:47 PM 20.4879 -98.3371 North 467 537 27,400 1,063 Climbing FlightAware ADS-B (DTMB / MIR)
Fri 06:55:26 PM 20.5696 -98.3293 North 476 548 28,100 911 Climbing FlightAware ADS-B (DTMB / MIR)
Fri 06:56:06 PM 20.6655 -98.3201 North 485 558 28,600 987 Climbing FlightAware ADS-B (DTMB / MIR)
Fri 06:56:45 PM 20.7428 -98.3127 North 488 562 29,400 1,538 Climbing FlightAware ADS-B (DTMB / MIR)
Fri 06:57:24 PM 20.8356 -98.3036 North 481 554 30,600 1,688 Climbing FlightAware ADS-B (DTMB / MIR)
Fri 06:57:49 PM 20.8956 -98.3002 359° North 471 542 31,200 1,521 Climbing FlightAware ADS-B (DTMB / MIR)
Fri 06:58:35 PM 20.9914 -98.3149 348° North 452 520 32,400 107 Climbing FlightAware ADS-B (DTMB / MIR)
Fri 07:33:16 PM 25.2735 -98.0880 12° North 474 545 35,000 74 Climbing FlightAware ADS-B
Fri 07:33:47 PM 25.3428 -98.0715 12° North 477 549 35,000  Level FlightAware ADS-B
Fri 07:34:17 PM 25.4068 -98.0562 12° North 478 550 35,000  Level FlightAware ADS-B
Fri 07:34:46 PM 25.4692 -98.0411 12° North 480 552 35,000  Level FlightAware ADS-B
Fri 07:35:17 PM 25.5339 -98.0255 12° North 465 535 35,000  Level FlightAware ADS-B
Fri 07:35:32 PM 25.5569 -98.0200 12° North 464 534 35,000  Level FlightAware ADS-B
Fri 07:36:39 PM 25.7082 -97.9839 12° North 464 534 35,000  Level FlightAware ADS-B
Fri 07:37:14 PM 25.7802 -97.9669 12° North 464 534 35,000  Level FlightAware ADS-B
Fri 07:38:18 PM 25.9120 -97.9346 12° North 458 527 35,000  Level FlightAware ADS-B
Fri 07:38:51 PM 25.9812 -97.9178 12° North 457 526 35,000  Level FlightAware ADS-B
Fri 07:39:23 PM 26.0416 -97.9033 12° North 456 525 35,000  Level FlightAware ADS-B
Fri 07:40:21 PM 26.1710 -97.8718 12° North 456 525 35,000  Level FlightAware ADS-B
Fri 07:40:48 PM 26.2151 -97.8611 12° North 458 527 35,000  Level FlightAware ADS-B
Fri 07:41:21 PM 26.2948 -97.8418 12° North 458 527 35,000  Level FlightAware ADS-B
Fri 07:41:44 PM 26.3117 -97.8377 12° North 458 527 35,000  Level FlightAware ADS-B
Fri 07:42:22 PM 26.4226 -97.8109 12° North 459 528 35,000  Level FlightAware ADS-B
Fri 07:42:48 PM 26.4594 -97.8019 12° North 461 531 35,000  Level FlightAware ADS-B
Fri 07:43:22 PM 26.5434 -97.7816 12° North 469 540 35,000  Level FlightAware ADS-B
Fri 07:43:52 PM 26.6077 -97.7659 12° North 479 551 35,000  Level FlightAware ADS-B
Fri 07:44:20 PM 26.6731 -97.7497 12° North 482 555 35,000  Level FlightAware ADS-B
Fri 07:44:44 PM 26.7234 -97.7374 12° North 483 556 35,000  Level FlightAware ADS-B
Fri 07:45:20 PM 26.8045 -97.7175 12° North 486 559 35,000  Level FlightAware ADS-B
Fri 07:45:41 PM 26.8352 -97.7100 12° North 487 560 35,000  Level FlightAware ADS-B
Fri 07:46:24 PM 26.9457 -97.6826 12° North 484 557 35,000  Level FlightAware ADS-B
Fri 07:47:31 PM 27.0872 -97.6475 12° North 480 552 35,000  Level Houston Center
Fri 07:48:33 PM 27.2175 -97.6153 12° North 473 544 35,000  Level Houston Center
Fri 07:49:35 PM 27.3489 -97.5825 12° North 473 544 35,000  Level Houston Center
Fri 07:50:37 PM 27.4806 -97.5494 13° North 476 548 35,000  Level Houston Center
Fri 07:51:39 PM 27.6122 -97.5172 12° North 478 550 35,000  Level Houston Center
Fri 07:52:41 PM 27.7539 -97.4819 12° North 473 544 35,000  Level Houston Center
Fri 07:53:43 PM 27.8828 -97.4447 14° North 472 543 35,000  Level Houston Center
Fri 07:54:46 PM 27.9906 -97.3331 42° Northeast 521 600 35,000  Level Houston Center
Fri 07:55:48 PM 28.0883 -97.2042 49° Northeast 530 610 35,000  Level Houston Center
Fri 07:56:50 PM 28.1861 -97.0753 49° Northeast 526 605 35,000 -48 Level Houston Center
Fri 07:57:52 PM 28.2783 -96.9533 49° Northeast 526 605 34,900 150 Descending Houston Center
Fri 08:03:30 PM 28.8365 -96.2487 35° Northeast 509 586 36,000 241 Climbing FlightAware ADS-B
Fri 08:04:06 PM 28.8962 -96.2011 34° Northeast 509 586 36,400 627 Climbing FlightAware ADS-B
Fri 08:04:37 PM 28.9597 -96.1506 35° Northeast 511 588 36,700 444 Climbing FlightAware ADS-B
Fri 08:05:27 PM 29.0663 -96.0651 35° Northeast 503 579 37,000 225 Climbing FlightAware ADS-B
Fri 08:05:57 PM 29.1250 -96.0180 35° Northeast 498 573 37,000  Level FlightAware ADS-B
Fri 08:06:27 PM 29.1810 -95.9731 35° Northeast 498 573 37,000  Level FlightAware ADS-B
Fri 08:06:57 PM 29.2383 -95.9276 34° Northeast 497 572 37,000  Level FlightAware ADS-B
Fri 08:07:27 PM 29.2939 -95.8788 45° Northeast 511 588 37,000  Level FlightAware ADS-B
Fri 08:07:48 PM 29.3218 -95.8332 59° Northeast 531 611 37,000  Level FlightAware ADS-B
Fri 08:08:16 PM 29.3562 -95.7643 60° Northeast 531 611 37,000  Level FlightAware ADS-B
Fri 08:08:49 PM 29.3905 -95.6821 67° East 538 619 37,000  Level FlightAware ADS-B
Fri 08:09:45 PM 29.4393 -95.5335 70° East 537 618 37,000  Level FlightAware ADS-B
Fri 08:10:05 PM 29.4553 -95.4830 70° East 535 616 37,000  Level FlightAware ADS-B
Fri 08:10:45 PM 29.4898 -95.3729 70° East 534 615 37,000  Level FlightAware ADS-B
Fri 08:11:15 PM 29.5154 -95.2913 70° East 533 613 37,000  Level FlightAware ADS-B
Fri 08:11:45 PM 29.5405 -95.2112 70° East 533 613 37,000  Level FlightAware ADS-B
Fri 08:12:14 PM 29.5657 -95.1320 69° East 528 608 37,000  Level FlightAware ADS-B
Fri 08:12:45 PM 29.5911 -95.0532 69° East 528 608 37,000  Level FlightAware ADS-B
Fri 08:13:15 PM 29.6158 -94.9763 69° East 526 605 37,000  Level FlightAware ADS-B
Fri 08:13:44 PM 29.6410 -94.9002 66° East 518 596 37,000  Level FlightAware ADS-B
Fri 08:14:15 PM 29.6706 -94.8225 66° East 518 596 37,000  Level FlightAware ADS-B
Fri 08:14:45 PM 29.7006 -94.7450 64° Northeast 521 600 37,000  Level FlightAware ADS-B
Fri 08:15:14 PM 29.7326 -94.6711 63° Northeast 519 597 37,000  Level FlightAware ADS-B
Fri 08:15:45 PM 29.7649 -94.5977 62° Northeast 516 594 37,000  Level FlightAware ADS-B
Fri 08:16:15 PM 29.7983 -94.5244 61° Northeast 515 593 37,000  Level FlightAware ADS-B
Fri 08:16:44 PM 29.8324 -94.4528 59° Northeast 514 592 37,000  Level FlightAware ADS-B
Fri 08:17:19 PM 29.8755 -94.3698 59° Northeast 519 597 37,000  Level FlightAware ADS-B
Fri 08:18:13 PM 29.9424 -94.2468 57° Northeast 512 589 37,000  Level FlightAware ADS-B
Fri 08:18:42 PM 29.9767 -94.1852 57° Northeast 510 587 37,000  Level FlightAware ADS-B
Fri 08:19:12 PM 30.0191 -94.1099 56° Northeast 508 585 37,000  Level FlightAware ADS-B
Fri 08:19:42 PM 30.0582 -94.0435 54° Northeast 505 581 37,000  Level FlightAware ADS-B
Fri 08:20:12 PM 30.0984 -93.9796 53° Northeast 505 581 37,000  Level FlightAware ADS-B
Fri 08:20:41 PM 30.1388 -93.9159 53° Northeast 505 581 37,000  Level FlightAware ADS-B
Fri 08:21:12 PM 30.1805 -93.8509 53° Northeast 506 582 37,000  Level FlightAware ADS-B
Fri 08:21:42 PM 30.2222 -93.7873 52° Northeast 505 581 37,000  Level FlightAware ADS-B
Fri 08:22:12 PM 30.2673 -93.7192 52° Northeast 505 581 37,000  Level FlightAware ADS-B
Fri 08:22:39 PM 30.3022 -93.6665 52° Northeast 504 580 37,000  Level FlightAware ADS-B
Fri 08:23:11 PM 30.3463 -93.5991 53° Northeast 503 579 37,000  Level FlightAware ADS-B
Fri 08:23:32 PM 30.3786 -93.5492 53° Northeast 501 577 37,000  Level FlightAware ADS-B
Fri 08:25:40 PM 30.5703 -93.2915 39° Northeast 488 562 37,000  Level FlightAware ADS-B
Fri 08:26:09 PM 30.6240 -93.2425 37° Northeast 485 558 37,000  Level FlightAware ADS-B
Fri 08:26:39 PM 30.6610 -93.2091 37° Northeast 483 556 37,000  Level FlightAware ADS-B
Fri 08:27:10 PM 30.7287 -93.1476 38° Northeast 483 556 37,000  Level FlightAware ADS-B
Fri 08:27:39 PM 30.7808 -93.0995 38° Northeast 485 558 37,000  Level FlightAware ADS-B
Fri 08:28:16 PM 30.8293 -93.0576 33° Northeast 476 548 37,000  Level FlightAware ADS-B
Fri 08:28:59 PM 30.9322 -92.9914 33° Northeast 476 548 37,000  Level FlightAware ADS-B
Fri 08:29:39 PM 31.0033 -92.9436 30° Northeast 468 539 37,000  Level FlightAware ADS-B
Fri 08:29:56 PM 31.0374 -92.9203 30° Northeast 470 541 37,000  Level FlightAware ADS-B
Fri 08:32:44 PM 31.3545 -92.7022 30° Northeast 474 545 37,000  Level FlightAware ADS-B
Fri 08:35:44 PM 31.7000 -92.4642 30° Northeast 482 555 37,000  Level FlightAware ADS-B
Fri 08:36:06 PM 31.7414 -92.4356 30° Northeast 481 554 37,000  Level FlightAware ADS-B
Fri 08:37:13 PM 31.8712 -92.3459 30° Northeast 474 545 37,000  Level FlightAware ADS-B
Fri 08:37:44 PM 31.9263 -92.2995 41° Northeast 484 557 37,000  Level FlightAware ADS-B
Fri 08:38:40 PM 31.9947 -92.1856 41° Northeast 494 568 37,000  Level Memphis Center
Fri 08:39:41 PM 32.0703 -92.0514 56° Northeast 494 568 37,000  Level Memphis Center
Fri 08:40:43 PM 32.1386 -91.9333 56° Northeast 477 549 37,000  Level Memphis Center
Fri 08:41:44 PM 32.2100 -91.8114 55° Northeast 461 531 37,000  Level Memphis Center
Fri 08:42:46 PM 32.2819 -91.6875 55° Northeast 461 531 37,000  Level Memphis Center
Fri 08:43:47 PM 32.3664 -91.5372 56° Northeast 461 531 37,000  Level Memphis Center
Fri 08:44:49 PM 32.4356 -91.4136 56° Northeast 457 526 37,000  Level Memphis Center
Fri 08:45:50 PM 32.5089 -91.2906 55° Northeast 457 526 37,000  Level Memphis Center
Fri 08:46:51 PM 32.5792 -91.1650 56° Northeast 457 526 37,000  Level Memphis Center
Fri 08:47:53 PM 32.6511 -91.0414 55° Northeast 458 527 37,000  Level Memphis Center
Fri 08:48:54 PM 32.7189 -90.9100 58° Northeast 463 533 37,000  Level Memphis Center
Fri 08:49:56 PM 32.7814 -90.7739 61° Northeast 468 539 37,000  Level Memphis Center
Fri 08:50:57 PM 32.8578 -90.6103 61° Northeast 471 542 37,000  Level Memphis Center
Fri 08:51:58 PM 32.9214 -90.4725 61° Northeast 472 543 37,000  Level Memphis Center
Fri 08:53:00 PM 32.9794 -90.3297 64° Northeast 476 548 37,000  Level Memphis Center
Fri 08:54:01 PM 33.0375 -90.1858 64° Northeast 480 552 37,000  Level Memphis Center
Fri 08:55:02 PM 33.0953 -90.0417 64° Northeast 480 552 37,000  Level Memphis Center
Fri 08:56:04 PM 33.1536 -89.8933 65° Northeast 481 554 37,000  Level Memphis Center
Fri 08:57:05 PM 33.2197 -89.7500 61° Northeast 490 564 37,000  Level Memphis Center
Fri 08:58:07 PM 33.3108 -89.6364 46° Northeast 479 551 37,000  Level Memphis Center
Fri 08:59:08 PM 33.4039 -89.5231 45° Northeast 479 551 37,000  Level Memphis Center
Fri 09:00:09 PM 33.4997 -89.4108 44° Northeast 480 552 37,000  Level Memphis Center
Fri 09:01:11 PM 33.6144 -89.2794 44° Northeast 480 552 37,000  Level Memphis Center
Fri 09:02:12 PM 33.7281 -89.1994 30° Northeast 477 549 37,000  Level Memphis Center
Fri 09:03:13 PM 33.8314 -89.1250 31° Northeast 477 549 37,000  Level Memphis Center
Fri 09:04:15 PM 33.9692 -89.0258 31° Northeast 479 551 37,000  Level Memphis Center
Fri 09:05:16 PM 34.0839 -88.9419 31° Northeast 482 555 37,000  Level Memphis Center
Fri 09:06:17 PM 34.1997 -88.8611 30° Northeast 482 555 37,000  Level Memphis Center
Fri 09:07:19 PM 34.3242 -88.7703 31° Northeast 484 557 37,000  Level Memphis Center
Fri 09:08:20 PM 34.4419 -88.6822 32° Northeast 490 564 37,000  Level Memphis Center
Fri 09:14:22 PM 35.1651 -88.1550 31° Northeast 506 582 37,000  Level FlightAware ADS-B (KMDQ)
Fri 09:15:03 PM 35.2262 -88.1095 31° Northeast 506 582 37,000  Level FlightAware ADS-B (KMDQ)
Fri 09:15:42 PM 35.3252 -88.0363 31° Northeast 505 581 37,000  Level FlightAware ADS-B (KMDQ)
Fri 09:18:02 PM 35.5929 -87.8364 32° Northeast 508 585 37,000  Level FlightAware ADS-B (KMDQ)
Fri 09:18:34 PM 35.6504 -87.7933 32° Northeast 509 586 37,000  Level FlightAware ADS-B (KMDQ)
Fri 09:19:42 PM 35.8063 -87.6759 32° Northeast 513 590 37,000  Level FlightAware ADS-B (KMDQ)
Fri 09:20:22 PM 35.8731 -87.6256 32° Northeast 515 593 37,000  Level FlightAware ADS-B (KMDQ)
Fri 09:26:00 PM 36.5780 -87.0875 32° Northeast 509 586 37,000  Level FlightAware ADS-B (KIXA)
Fri 09:27:56 PM 36.8076 -86.9092 32° Northeast 502 578 37,000  Level FlightAware ADS-B (KIXA)
Fri 09:29:17 PM 36.9672 -86.7848 32° Northeast 498 573 37,000  Level FlightAware ADS-B (KIXA)
Fri 09:29:47 PM 37.0134 -86.7483 32° Northeast 498 573 37,000  Level FlightAware ADS-B (KIXA)
Fri 09:30:19 PM 37.0860 -86.6917 32° Northeast 499 574 37,000  Level FlightAware ADS-B (KIXA)
Fri 09:30:49 PM 37.1459 -86.6447 32° Northeast 501 577 37,000  Level FlightAware ADS-B (KIXA)
Fri 09:31:19 PM 37.1978 -86.6040 32° Northeast 502 578 37,000  Level FlightAware ADS-B (KIXA)
Fri 09:32:03 PM 37.2927 -86.5294 32° Northeast 507 583 37,000  Level FlightAware ADS-B (KIXA)
Fri 09:32:33 PM 37.3481 -86.4856 32° Northeast 505 581 37,000  Level FlightAware ADS-B (KIXA)
Fri 09:33:18 PM 37.4400 -86.4126 33° Northeast 509 586 37,000  Level FlightAware ADS-B (KIXA)
Fri 09:33:49 PM 37.4877 -86.3745 32° Northeast 511 588 37,000  Level FlightAware ADS-B (KIXA)
Fri 09:34:19 PM 37.5610 -86.3167 32° Northeast 511 588 37,000  Level FlightAware ADS-B (KIXA)
Fri 09:35:04 PM 37.6521 -86.2438 32° Northeast 506 582 37,000  Level FlightAware ADS-B (KIXA)
Fri 09:35:34 PM 37.7066 -86.2001 32° Northeast 506 582 37,000  Level FlightAware ADS-B (KIXA)
Fri 09:36:04 PM 37.7699 -86.1495 33° Northeast 508 585 37,000  Level FlightAware ADS-B (KIXA)
Fri 09:36:38 PM 37.8386 -86.0942 33° Northeast 509 586 37,000  Level FlightAware ADS-B
Fri 09:37:19 PM 37.9176 -86.0308 33° Northeast 507 583 37,000  Level FlightAware ADS-B (KIXA)
Fri 09:38:04 PM 38.0073 -85.9583 33° Northeast 505 581 37,000  Level FlightAware ADS-B (KIXA)
Fri 09:38:42 PM 38.0815 -85.8986 33° Northeast 505 581 37,000  Level FlightAware ADS-B
Fri 09:39:45 PM 38.2071 -85.7966 33° Northeast 505 581 37,000  Level FlightAware ADS-B (KIXA)
Fri 09:41:04 PM 38.3515 -85.6789 33° Northeast 507 583 37,000  Level FlightAware ADS-B
Fri 09:42:08 PM 38.4887 -85.5665 33° Northeast 509 586 37,000  Level FlightAware ADS-B
Fri 09:42:49 PM 38.5705 -85.4993 33° Northeast 510 587 37,000  Level FlightAware ADS-B (KIXA)
Fri 09:45:11 PM 38.8249 -85.2890 33° Northeast 518 596 37,000  Level FlightAware ADS-B
Fri 09:45:44 PM 38.9159 -85.2132 33° Northeast 520 598 37,000  Level FlightAware ADS-B
Fri 09:46:19 PM 38.9804 -85.1599 33° Northeast 522 601 37,000  Level FlightAware ADS-B
Fri 09:46:49 PM 39.0055 -85.1389 33° Northeast 522 601 37,000  Level FlightAware ADS-B
Fri 09:47:43 PM 39.1321 -85.0327 33° Northeast 523 602 37,000  Level FlightAware ADS-B (KCVG)
Fri 09:48:46 PM 39.2401 -84.9417 33° Northeast 525 604 37,000  Level FlightAware ADS-B (KCVG)
Fri 09:49:49 PM 39.4122 -84.7964 33° Northeast 523 602 37,000  Level FlightAware ADS-B (KCVG)
Fri 09:50:25 PM 39.4510 -84.7632 34° Northeast 522 601 37,000  Level FlightAware ADS-B (KCVG)
Fri 09:51:27 PM 39.6124 -84.6260 33° Northeast 522 601 37,000  Level FlightAware ADS-B
Fri 09:55:43 PM 40.0195 -84.0389 58° Northeast 526 605 37,000  Level FlightAware ADS-B
Fri 09:56:46 PM 40.0958 -83.8806 58° Northeast 527 606 37,000  Level Indianapolis Center
Fri 09:57:47 PM 40.1722 -83.7153 59° Northeast 527 606 37,000  Level Indianapolis Center
Fri 09:58:49 PM 40.2514 -83.5486 58° Northeast 529 609 37,000  Level Indianapolis Center
Fri 09:59:50 PM 40.3319 -83.3778 58° Northeast 541 623 37,000  Level Indianapolis Center
Fri 10:00:51 PM 40.4122 -83.2078 58° Northeast 543 625 37,000  Level Indianapolis Center
Fri 10:01:53 PM 40.4911 -83.0356 59° Northeast 544 626 37,000  Level Indianapolis Center
Fri 10:02:54 PM 40.5717 -82.8594 59° Northeast 545 627 37,000  Level Indianapolis Center
Fri 10:03:55 PM 40.6483 -82.6847 60° Northeast 546 628 37,000  Level Indianapolis Center
Fri 10:04:57 PM 40.6989 -82.4942 71° East 546 628 37,000  Level Indianapolis Center
Fri 10:11:07 PM 41.0256 -81.2836 70° East 561 646 37,000  Level FlightAware ADS-B (CYYZ)
Fri 10:11:36 PM 41.0276 -81.2758 70° East 561 646 37,000  Level FlightAware ADS-B (CYYZ)
Fri 10:12:38 PM 41.1026 -80.9883 71° East 563 648 37,000  Level FlightAware ADS-B (CYYZ)
Fri 10:13:08 PM 41.1274 -80.8921 71° East 563 648 37,000  Level FlightAware ADS-B (CYYZ)
Fri 10:13:38 PM 41.1530 -80.7925 71° East 564 649 37,000  Level FlightAware ADS-B (CYYZ)
Fri 10:14:08 PM 41.1777 -80.6963 71° East 565 650 37,000  Level FlightAware ADS-B (CYYZ)
Fri 10:14:37 PM 41.2031 -80.5978 71° East 565 650 37,000  Level FlightAware ADS-B (CYYZ)
Fri 10:15:08 PM 41.2271 -80.5040 71° East 565 650 37,000  Level FlightAware ADS-B (CYYZ)
Fri 10:15:37 PM 41.2538 -80.3992 71° East 565 650 37,000  Level FlightAware ADS-B (CYYZ)
Fri 10:16:07 PM 41.2785 -80.3019 71° East 565 650 37,000  Level FlightAware ADS-B (CYYZ)
Fri 10:16:38 PM 41.3032 -80.2037 71° East 566 651 37,000  Level FlightAware ADS-B (CYYZ)
Fri 10:17:07 PM 41.3277 -80.1056 71° East 566 651 37,000  Level FlightAware ADS-B (CYYZ)
Fri 10:17:38 PM 41.3532 -80.0034 71° East 567 652 37,000  Level FlightAware ADS-B (CYYZ)
Fri 10:18:07 PM 41.3772 -79.9077 71° East 569 655 37,000  Level FlightAware ADS-B (CYYZ)
Fri 10:18:37 PM 41.4004 -79.8139 71° East 570 656 37,000  Level FlightAware ADS-B (CYYZ)
Fri 10:19:08 PM 41.4269 -79.7057 72° East 570 656 37,000  Level FlightAware ADS-B (CYYZ)
Fri 10:19:37 PM 41.4511 -79.6065 72° East 571 657 37,000  Level FlightAware ADS-B (CYYZ)
Fri 10:20:07 PM 41.4758 -79.5057 71° East 573 659 37,000  Level FlightAware ADS-B (CYYZ)
Fri 10:20:38 PM 41.5005 -79.4043 72° East 573 659 37,000  Level FlightAware ADS-B (CYYZ)
Fri 10:21:08 PM 41.5252 -79.3023 72° East 575 662 37,000  Level FlightAware ADS-B (CYYZ)
Fri 10:21:37 PM 41.5461 -79.2162 72° East 576 663 37,000  Level FlightAware ADS-B (CYYZ)
Fri 10:22:08 PM 41.5657 -79.1350 72° East 577 664 37,000  Level FlightAware ADS-B (CYYZ)
Fri 10:22:38 PM 41.5988 -78.9969 72° East 578 665 37,000  Level FlightAware ADS-B (CYYZ)
Fri 10:23:07 PM 41.6227 -78.8962 72° East 576 663 37,000  Level FlightAware ADS-B (CYYZ)
Fri 10:23:37 PM 41.6467 -78.7946 72° East 573 659 37,000  Level FlightAware ADS-B (CYYZ)
Fri 10:24:07 PM 41.6707 -78.6929 72° East 572 658 37,000  Level FlightAware ADS-B (CYYZ)
Fri 10:24:37 PM 41.6932 -78.5978 72° East 573 659 37,000  Level FlightAware ADS-B (CYYZ)
Fri 10:25:07 PM 41.7169 -78.4959 72° East 576 663 37,000  Level FlightAware ADS-B (CYYZ)
Fri 10:25:37 PM 41.7390 -78.4007 72° East 582 670 37,000  Level FlightAware ADS-B (CYYZ)
Fri 10:26:07 PM 41.7649 -78.2893 72° East 583 671 37,000  Level FlightAware ADS-B (CYYZ)
Fri 10:26:37 PM 41.7896 -78.1828 72° East 584 672 37,000  Level FlightAware ADS-B (CYYZ)
Fri 10:27:07 PM 41.8122 -78.0847 72° East 584 672 37,000  Level FlightAware ADS-B (CYYZ)
Fri 10:27:37 PM 41.8367 -77.9773 73° East 586 674 37,000  Level FlightAware ADS-B (CYYZ)
Fri 10:27:51 PM 41.8460 -77.9330 76° East 585 673 37,000  Level FlightAware ADS-B
Fri 10:28:07 PM 41.8516 -77.8827 87° East 573 659 37,000  Level FlightAware ADS-B (CYYZ)
Fri 10:28:15 PM 41.8520 -77.8460 91° East 569 655 37,000  Level FlightAware ADS-B
Fri 10:28:28 PM 41.8483 -77.8007 99° East 555 639 37,000  Level FlightAware ADS-B (CYYZ)
Fri 10:28:39 PM 41.8420 -77.7650 103° East 545 627 37,000  Level FlightAware ADS-B
Fri 10:29:14 PM 41.8140 -77.6560 109° East 536 617 37,000  Level FlightAware ADS-B
Fri 10:29:16 PM 41.8121 -77.6507 109° East 534 615 37,000  Level FlightAware ADS-B (CYYZ)
Fri 10:29:45 PM 41.7890 -77.5650 109° East 537 618 37,000  Level FlightAware ADS-B
Fri 10:30:22 PM 41.7578 -77.4473 109° East 534 615 37,000  Level FlightAware ADS-B (CYYZ)
Fri 10:30:27 PM 41.7530 -77.4280 109° East 538 619 37,000  Level FlightAware ADS-B
Fri 10:30:52 PM 41.7309 -77.3464 109° East 534 615 37,000  Level FlightAware ADS-B (CYYZ)
Fri 10:31:03 PM 41.7230 -77.3150 109° East 537 618 37,000 -828 Level FlightAware ADS-B
Fri 10:31:21 PM 41.7133 -77.2806 109° East 534 615 36,600 -2,026 Descending FlightAware ADS-B (CYYZ)
Fri 10:32:20 PM 41.6570 -77.0750 110° East 527 606 34,400 -2,292 Descending FlightAware ADS-B
Fri 10:32:50 PM 41.6330 -76.9830 109° East 526 605 33,200 -1,292 Descending FlightAware ADS-B
Fri 10:33:25 PM 41.6050 -76.8790 109° East 532 612 33,000 -158 Descending FlightAware ADS-B
Fri 10:34:06 PM 41.5720 -76.7560 110° East 530 610 33,000  Level FlightAware ADS-B
Fri 10:34:39 PM 41.5418 -76.6472 110° East 532 612 33,000  Level FlightAware ADS-B (KPHL)
Fri 10:35:10 PM 41.5180 -76.5600 110° East 534 615 33,000  Level FlightAware ADS-B
Fri 10:35:19 PM 41.5104 -76.5337 110° East 533 613 33,000  Level FlightAware ADS-B (KPHL)
Fri 10:35:47 PM 41.4840 -76.4390 110° East 533 613 33,000  Level FlightAware ADS-B
Fri 10:36:39 PM 41.4400 -76.2790 110° East 534 615 33,000  Level FlightAware ADS-B
Fri 10:37:34 PM 41.3920 -76.1100 110° East 534 615 33,000 -119 Level FlightAware ADS-B
Fri 10:38:20 PM 41.3530 -75.9740 110° East 528 608 32,800 -2,081 Descending FlightAware ADS-B
Fri 10:39:38 PM 41.2881 -75.7464 110° East 520 598 28,700 -2,826 Descending New York Center
Fri 10:40:38 PM 41.2311 -75.5631 112° Southeast 527 606 26,300 -2,450 Descending New York Center
Fri 10:41:38 PM 41.1733 -75.3936 114° Southeast 514 592 23,800 -1,800 Descending New York Center
Fri 10:42:38 PM 41.1189 -75.2328 114° Southeast 499 574 22,700 -850 Descending New York Center
Fri 10:43:38 PM 41.0683 -75.0808 114° Southeast 482 555 22,100 -556 Descending New York Center
Fri 10:48:56 PM 40.9245 -74.2241 99° East 396 456 19,200 -517 Descending FlightAware ADS-B (KPHL)
Fri 10:49:38 PM 40.9025 -74.1589 99° East 355 409 19,000 -583 Descending New York Center
Fri 10:50:08 PM 40.8500 -74.1167 149° Southeast 322 371 18,500 -1,500 Descending New York TRACON
Fri 10:51:14 PM 40.7667 -74.0667 156° South 321 369 16,600 -1,714 Descending New York TRACON
Fri 10:52:14 PM 40.6833 -74.0167 156° South 320 368 14,900 -1,571 Descending New York TRACON
Fri 10:53:20 PM 40.6000 -73.9667 156° South 314 361 13,300 -905 Descending New York TRACON
Fri 10:54:20 PM 40.5167 -73.9333 163° South 312 359 13,000 -250 Descending New York TRACON
Fri 10:55:20 PM 40.4333 -73.8833 155° Southeast 305 351 12,800 -842 Descending New York TRACON
Fri 10:56:14 PM 40.3667 -73.8500 159° South 306 352 11,400 -1,632 Descending New York TRACON
Fri 10:57:14 PM 40.3167 -73.7667 128° Southeast 318 366 9,700 -1,850 Descending New York TRACON
Fri 10:58:14 PM 40.3000 -73.6500 101° East 317 365 7,700 -1,950 Descending New York TRACON
Fri 10:59:14 PM 40.3500 -73.5833 45° Northeast 292 336 5,800 -1,800 Descending New York TRACON
Fri 11:00:14 PM 40.4167 -73.5167 37° Northeast 291 335 4,100 -900 Descending New York TRACON
Fri 11:01:14 PM 40.5000 -73.4833 17° North 283 326 4,000 -50 Descending New York TRACON
Fri 11:02:14 PM 40.5667 -73.4500 21° North 281 323 4,000 -190 Level New York TRACON
Fri 11:03:20 PM 40.6500 -73.4667 351° North 267 307 3,600 -550 Descending New York TRACON
Fri 11:04:14 PM 40.7167 -73.4667 360° North 232 267 2,900 -300 Descending New York TRACON
Fri 11:05:20 PM 40.7500 -73.5000 323° Northwest 177 204 3,000 50 Climbing New York TRACON
Fri 11:06:14 PM 40.7833 -73.5500 311° West 182 209 3,000  Level New York TRACON
Fri 11:07:14 PM 40.8167 -73.6167 303° West 185 213 3,000 -48 Level New York TRACON
Fri 11:08:20 PM 40.7833 -73.6667 229° Southwest 156 180 2,900 -238 Descending New York TRACON
Fri 11:09:20 PM 40.7500 -73.7000 217° Southwest 161 185 2,500 -600 Descending New York TRACON
Fri 11:10:20 PM 40.7167 -73.7167 201° Southwest 138 159 1,700 -789 Descending New York TRACON
Fri 11:11:14 PM 40.6833 -73.7333 201° Southwest 128 147 1,000 -778 Descending New York TRACON

Login

Don't have an account? Register now (free) for customized features, flight alerts, and more!